Wetterdaten: Februar 2010
Datum Temp Feuchte Luftdruck Regen Wind Richtung Sonnenschein UV Solar Windben
01.02.2010 -2,1 C 95 % 1008,6 hPa 0,0 l/m 10,8 km/h S-SW 0,00 h 0,0 UV-I 23 W/m 21,8 km/h
02.02.2010 -0,1 C 93 % 1002,6 hPa 0,0 l/m 16,4 km/h S 0,00 h 0,0 UV-I 23 W/m 31,0 km/h
03.02.2010 -1,4 C 94 % 1010,4 hPa 0,0 l/m 4,9 km/h S 0,00 h 0,0 UV-I 13 W/m 8,4 km/h
04.02.2010 1,8 C 97 % 1013,2 hPa 6,2 l/m 7,7 km/h S-SO 1,17 h 0,8 UV-I 112 W/m 13,3 km/h
05.02.2010 1,0 C 94 % 1008,8 hPa 6,2 l/m 3,6 km/h S-SO 0,75 h 0,8 UV-I 115 W/m 9,6 km/h
06.02.2010 0,6 C 98 % 1014,6 hPa 0,6 l/m 0,9 km/h O 0,00 h 0,0 UV-I 42 W/m 3,2 km/h
07.02.2010 -2,2 C 94 % 1020,6 hPa 0,0 l/m 1,8 km/h NO 0,00 h 0,5 UV-I 69 W/m 6,8 km/h
08.02.2010 -6,4 C 91 % 1012,0 hPa 0,0 l/m 5,4 km/h SO 0,00 h 0,6 UV-I 75 W/m 14,9 km/h
09.02.2010 -6,4 C 89 % 1007,5 hPa 0,0 l/m 1,5 km/h SO 0,00 h 0,6 UV-I 72 W/m 3,6 km/h
10.02.2010 -6,6 C 90 % 1010,6 hPa 0,0 l/m 2,3 km/h N-NO 0,00 h 0,0 UV-I 49 W/m 6,9 km/h
11.02.2010 -4,2 C 93 % 1013,8 hPa 0,0 l/m 15,1 km/h N-NO 0,00 h 0,0 UV-I 44 W/m 26,2 km/h
12.02.2010 -4,3 C 92 % 1017,4 hPa 0,0 l/m 9,3 km/h N 0,58 h 0,7 UV-I 110 W/m 18,1 km/h
13.02.2010 -4,9 C 93 % 1016,2 hPa 0,0 l/m 0,9 km/h N-NW 0,00 h 0,0 UV-I 37 W/m 2,4 km/h
14.02.2010 -7,1 C 92 % 1013,8 hPa 0,0 l/m 1,7 km/h SO 1,40 h 0,6 UV-I 97 W/m 4,0 km/h
15.02.2010 -4,6 C 91 % 1008,0 hPa 0,0 l/m 9,3 km/h S-SO 2,08 h 1,0 UV-I 133 W/m 16,1 km/h
16.02.2010 -4,2 C 84 % 1003,0 hPa 1,0 l/m 12,7 km/h S-SO 7,00 h 1,1 UV-I 233 W/m 20,9 km/h
17.02.2010 -2,0 C 85 % 995,8 hPa 0,4 l/m 8,7 km/h S-SO 3,17 h 1,1 UV-I 168 W/m 16,1 km/h
18.02.2010 1,3 C 95 % 997,0 hPa 6,4 l/m 6,6 km/h S 0,42 h 0,6 UV-I 80 W/m 12,1 km/h
19.02.2010 2,0 C 90 % 992,8 hPa 0,8 l/m 13,8 km/h S 1,25 h 0,8 UV-I 126 W/m 24,9 km/h
20.02.2010 -0,1 C 84 % 997,6 hPa 0,2 l/m 8,8 km/h S-SW 1,92 h 0,8 UV-I 119 W/m 17,7 km/h
21.02.2010 0,1 C 90 % 999,0 hPa 1,2 l/m 8,3 km/h S-SW 3,33 h 1,1 UV-I 181 W/m 14,0 km/h
22.02.2010 3,1 C 94 % 989,3 hPa 3,6 l/m 12,4 km/h S-SO 0,67 h 0,8 UV-I 122 W/m 20,9 km/h
23.02.2010 0,8 C 97 % 995,3 hPa 7,6 l/m 4,2 km/h N-NO 0,00 h 0,5 UV-I 60 W/m 10,1 km/h
24.02.2010 4,6 C 92 % 999,3 hPa 6,0 l/m 10,0 km/h S 3,58 h 1,0 UV-I 191 W/m 17,3 km/h
25.02.2010 5,1 C 90 % 994,9 hPa 1,2 l/m 9,7 km/h S 0,25 h 0,8 UV-I 88 W/m 15,3 km/h
26.02.2010 5,3 C 89 % 993,2 hPa 8,0 l/m 11,3 km/h S 0,67 h 0,8 UV-I 114 W/m 23,0 km/h
27.02.2010 5,0 C 80 % 999,6 hPa 0,2 l/m 11,7 km/h S 1,50 h 0,7 UV-I 126 W/m 20,5 km/h
28.02.2010 5,2 C 88 % 985,9 hPa 7,4 l/m 25,0 km/h S-SO 1,08 h 1,0 UV-I 108 W/m 49,4 km/h
Min-Datum 14.02.10 28.02.10 28.02.10 16 Tage 03.02.10 - - - - 03.02.10
Min-Zeit 07:10 03:10 14:40 - 01:00 - - - - 01:00
Minimum -10,2 C 62 % 981,2 hPa - 0,0 km/h - - - - 0,0 km/h
Max-Datum 28.02.10 11.02.10 07.02.10 26.02.10 28.02.10 - 16.02.10 17.02.10 24.02.10 28.02.10
Max-Zeit 12:30 00:20 10:55 17:55 17:40 - 16:50 12:05 12:15 18:40
Maximum 10,8 C 100 % 1022,7 hPa 8,0 l/m 43,2 km/h
S-SO
- 6,92 h 1,9 UV-I 675 W/m 70,8 km/h
S-SO
Durchschnitt -0,7 C 91 % 1004,3 hPa #57,0 l/m 8,4 km/h S-SO #30:49 h 0,8 UV-I 97 W/m 16,0 km/h

Durchschnitt Minimum Temp.-3,3 C
Durchschnitt Maximum Temp.1,6 C